sensor_id;sensor_type;location;lat;lon;timestamp;P1;durP1;ratioP1;P2;durP2;ratioP2
38332;SDS011;25748;46.670;14.272;2022-12-07T00:01:10;5.57;;;2.75;;
38332;SDS011;25748;46.670;14.272;2022-12-07T00:03:37;9.48;;;3.20;;
38332;SDS011;25748;46.670;14.272;2022-12-07T00:06:04;5.65;;;2.38;;
38332;SDS011;25748;46.670;14.272;2022-12-07T00:08:32;7.28;;;3.38;;
38332;SDS011;25748;46.670;14.272;2022-12-07T00:11:03;6.60;;;2.80;;
38332;SDS011;25748;46.670;14.272;2022-12-07T00:13:33;6.07;;;3.03;;
38332;SDS011;25748;46.670;14.272;2022-12-07T00:16:00;8.60;;;2.65;;
38332;SDS011;25748;46.670;14.272;2022-12-07T00:18:40;5.85;;;2.22;;
38332;SDS011;25748;46.670;14.272;2022-12-07T00:21:08;7.78;;;2.75;;
38332;SDS011;25748;46.670;14.272;2022-12-07T00:23:35;8.90;;;3.10;;
38332;SDS011;25748;46.670;14.272;2022-12-07T00:26:12;5.63;;;2.92;;
38332;SDS011;25748;46.670;14.272;2022-12-07T00:28:46;4.47;;;2.80;;
38332;SDS011;25748;46.670;14.272;2022-12-07T00:31:13;5.97;;;2.72;;
38332;SDS011;25748;46.670;14.272;2022-12-07T00:33:40;5.40;;;3.00;;
38332;SDS011;25748;46.670;14.272;2022-12-07T00:36:07;4.88;;;2.45;;
38332;SDS011;25748;46.670;14.272;2022-12-07T00:38:41;6.47;;;3.10;;
38332;SDS011;25748;46.670;14.272;2022-12-07T00:41:11;6.95;;;2.92;;
38332;SDS011;25748;46.670;14.272;2022-12-07T00:43:39;6.80;;;3.45;;
38332;SDS011;25748;46.670;14.272;2022-12-07T00:46:05;8.35;;;3.53;;
38332;SDS011;25748;46.670;14.272;2022-12-07T00:48:32;4.63;;;2.70;;
38332;SDS011;25748;46.670;14.272;2022-12-07T00:50:58;4.22;;;2.72;;
38332;SDS011;25748;46.670;14.272;2022-12-07T00:53:24;5.88;;;3.05;;
38332;SDS011;25748;46.670;14.272;2022-12-07T00:55:50;6.28;;;3.25;;
38332;SDS011;25748;46.670;14.272;2022-12-07T00:58:15;6.75;;;2.72;;
38332;SDS011;25748;46.670;14.272;2022-12-07T01:00:41;4.78;;;2.45;;
38332;SDS011;25748;46.670;14.272;2022-12-07T01:03:08;5.32;;;2.78;;
38332;SDS011;25748;46.670;14.272;2022-12-07T01:05:35;3.83;;;2.05;;
38332;SDS011;25748;46.670;14.272;2022-12-07T01:08:01;8.45;;;2.80;;
38332;SDS011;25748;46.670;14.272;2022-12-07T01:10:28;6.07;;;2.38;;
38332;SDS011;25748;46.670;14.272;2022-12-07T01:12:55;10.00;;;3.88;;
38332;SDS011;25748;46.670;14.272;2022-12-07T01:15:21;5.53;;;3.03;;
38332;SDS011;25748;46.670;14.272;2022-12-07T01:17:47;4.38;;;2.17;;
38332;SDS011;25748;46.670;14.272;2022-12-07T01:20:13;4.95;;;2.50;;
38332;SDS011;25748;46.670;14.272;2022-12-07T01:22:41;5.22;;;2.60;;
38332;SDS011;25748;46.670;14.272;2022-12-07T01:25:08;4.97;;;2.25;;
38332;SDS011;25748;46.670;14.272;2022-12-07T01:27:35;7.65;;;2.50;;
38332;SDS011;25748;46.670;14.272;2022-12-07T01:30:02;7.03;;;2.97;;
38332;SDS011;25748;46.670;14.272;2022-12-07T01:32:29;6.90;;;2.00;;
38332;SDS011;25748;46.670;14.272;2022-12-07T01:34:55;5.95;;;2.40;;
38332;SDS011;25748;46.670;14.272;2022-12-07T01:37:20;4.45;;;2.45;;
38332;SDS011;25748;46.670;14.272;2022-12-07T01:39:50;6.18;;;2.72;;
38332;SDS011;25748;46.670;14.272;2022-12-07T01:42:16;8.32;;;3.33;;
38332;SDS011;25748;46.670;14.272;2022-12-07T01:47:48;6.63;;;2.83;;
38332;SDS011;25748;46.670;14.272;2022-12-07T01:50:38;3.20;;;1.92;;
38332;SDS011;25748;46.670;14.272;2022-12-07T01:53:10;6.65;;;2.85;;
38332;SDS011;25748;46.670;14.272;2022-12-07T01:56:02;4.38;;;1.98;;
38332;SDS011;25748;46.670;14.272;2022-12-07T01:58:28;6.40;;;2.15;;
38332;SDS011;25748;46.670;14.272;2022-12-07T02:00:55;5.68;;;2.60;;
38332;SDS011;25748;46.670;14.272;2022-12-07T02:03:22;6.00;;;2.40;;
38332;SDS011;25748;46.670;14.272;2022-12-07T02:05:54;5.55;;;2.50;;
38332;SDS011;25748;46.670;14.272;2022-12-07T02:08:20;5.15;;;1.73;;
38332;SDS011;25748;46.670;14.272;2022-12-07T02:10:46;5.38;;;2.15;;
38332;SDS011;25748;46.670;14.272;2022-12-07T02:13:16;3.00;;;1.50;;
38332;SDS011;25748;46.670;14.272;2022-12-07T02:19:38;6.47;;;2.22;;
38332;SDS011;25748;46.670;14.272;2022-12-07T02:27:57;3.95;;;1.95;;
38332;SDS011;25748;46.670;14.272;2022-12-07T02:30:47;6.28;;;1.70;;
38332;SDS011;25748;46.670;14.272;2022-12-07T02:33:26;4.10;;;2.00;;
38332;SDS011;25748;46.670;14.272;2022-12-07T02:36:02;5.65;;;2.50;;
38332;SDS011;25748;46.670;14.272;2022-12-07T02:42:00;4.90;;;2.55;;
38332;SDS011;25748;46.670;14.272;2022-12-07T02:44:19;3.28;;;1.33;;
38332;SDS011;25748;46.670;14.272;2022-12-07T02:46:55;6.25;;;2.53;;
38332;SDS011;25748;46.670;14.272;2022-12-07T02:49:24;6.43;;;2.47;;
38332;SDS011;25748;46.670;14.272;2022-12-07T02:51:52;6.97;;;2.20;;
38332;SDS011;25748;46.670;14.272;2022-12-07T02:54:19;8.77;;;2.40;;
38332;SDS011;25748;46.670;14.272;2022-12-07T03:02:28;8.30;;;2.85;;
38332;SDS011;25748;46.670;14.272;2022-12-07T03:18:33;3.97;;;2.55;;
38332;SDS011;25748;46.670;14.272;2022-12-07T03:21:07;6.43;;;2.70;;
38332;SDS011;25748;46.670;14.272;2022-12-07T03:23:39;4.65;;;2.35;;
38332;SDS011;25748;46.670;14.272;2022-12-07T03:26:08;3.75;;;2.05;;
38332;SDS011;25748;46.670;14.272;2022-12-07T03:28:39;7.45;;;2.92;;
38332;SDS011;25748;46.670;14.272;2022-12-07T03:36:36;4.90;;;2.47;;
38332;SDS011;25748;46.670;14.272;2022-12-07T03:39:19;5.25;;;1.98;;
38332;SDS011;25748;46.670;14.272;2022-12-07T03:41:57;3.40;;;2.05;;
38332;SDS011;25748;46.670;14.272;2022-12-07T03:44:25;7.10;;;2.97;;
38332;SDS011;25748;46.670;14.272;2022-12-07T03:47:05;8.35;;;2.47;;
38332;SDS011;25748;46.670;14.272;2022-12-07T03:49:50;7.00;;;2.95;;
38332;SDS011;25748;46.670;14.272;2022-12-07T03:57:42;9.05;;;2.97;;
38332;SDS011;25748;46.670;14.272;2022-12-07T04:00:12;9.45;;;2.63;;
38332;SDS011;25748;46.670;14.272;2022-12-07T04:02:38;5.60;;;2.72;;
38332;SDS011;25748;46.670;14.272;2022-12-07T04:05:05;8.07;;;2.78;;
38332;SDS011;25748;46.670;14.272;2022-12-07T04:07:31;8.05;;;2.97;;
38332;SDS011;25748;46.670;14.272;2022-12-07T04:09:57;8.32;;;2.60;;
38332;SDS011;25748;46.670;14.272;2022-12-07T04:12:23;10.32;;;2.70;;
38332;SDS011;25748;46.670;14.272;2022-12-07T04:14:48;9.43;;;2.45;;
38332;SDS011;25748;46.670;14.272;2022-12-07T04:17:14;5.32;;;2.58;;
38332;SDS011;25748;46.670;14.272;2022-12-07T04:19:40;6.30;;;2.65;;
38332;SDS011;25748;46.670;14.272;2022-12-07T04:22:06;5.47;;;2.45;;
38332;SDS011;25748;46.670;14.272;2022-12-07T04:24:32;6.57;;;2.20;;
38332;SDS011;25748;46.670;14.272;2022-12-07T04:26:58;5.72;;;2.15;;
38332;SDS011;25748;46.670;14.272;2022-12-07T04:29:24;7.38;;;2.13;;
38332;SDS011;25748;46.670;14.272;2022-12-07T04:31:50;7.00;;;3.10;;
38332;SDS011;25748;46.670;14.272;2022-12-07T04:34:17;7.82;;;2.88;;
38332;SDS011;25748;46.670;14.272;2022-12-07T04:36:44;4.65;;;2.42;;
38332;SDS011;25748;46.670;14.272;2022-12-07T04:39:14;6.00;;;3.17;;
38332;SDS011;25748;46.670;14.272;2022-12-07T04:41:55;7.18;;;2.08;;
38332;SDS011;25748;46.670;14.272;2022-12-07T04:44:22;6.22;;;2.63;;
38332;SDS011;25748;46.670;14.272;2022-12-07T04:46:49;4.95;;;1.83;;
38332;SDS011;25748;46.670;14.272;2022-12-07T04:49:15;5.72;;;2.15;;
38332;SDS011;25748;46.670;14.272;2022-12-07T04:51:42;5.38;;;2.22;;
38332;SDS011;25748;46.670;14.272;2022-12-07T04:54:08;6.78;;;2.72;;
38332;SDS011;25748;46.670;14.272;2022-12-07T04:56:34;4.90;;;2.20;;
38332;SDS011;25748;46.670;14.272;2022-12-07T04:59:00;7.55;;;2.60;;
38332;SDS011;25748;46.670;14.272;2022-12-07T05:01:27;4.05;;;1.92;;
38332;SDS011;25748;46.670;14.272;2022-12-07T05:03:53;5.63;;;2.47;;
38332;SDS011;25748;46.670;14.272;2022-12-07T05:06:18;9.02;;;3.05;;
38332;SDS011;25748;46.670;14.272;2022-12-07T05:08:44;5.97;;;2.78;;
38332;SDS011;25748;46.670;14.272;2022-12-07T05:11:10;6.78;;;2.78;;
38332;SDS011;25748;46.670;14.272;2022-12-07T05:13:59;6.63;;;2.55;;
38332;SDS011;25748;46.670;14.272;2022-12-07T05:16:26;8.07;;;2.97;;
38332;SDS011;25748;46.670;14.272;2022-12-07T05:18:52;4.82;;;2.40;;
38332;SDS011;25748;46.670;14.272;2022-12-07T05:21:18;9.65;;;2.53;;
38332;SDS011;25748;46.670;14.272;2022-12-07T05:23:43;4.60;;;2.15;;
38332;SDS011;25748;46.670;14.272;2022-12-07T05:26:09;6.47;;;2.38;;
38332;SDS011;25748;46.670;14.272;2022-12-07T05:28:35;4.78;;;2.13;;
38332;SDS011;25748;46.670;14.272;2022-12-07T05:31:00;3.67;;;2.20;;
38332;SDS011;25748;46.670;14.272;2022-12-07T05:33:26;3.80;;;2.13;;
38332;SDS011;25748;46.670;14.272;2022-12-07T05:35:52;3.67;;;1.85;;
38332;SDS011;25748;46.670;14.272;2022-12-07T05:38:18;5.88;;;2.42;;
38332;SDS011;25748;46.670;14.272;2022-12-07T05:40:43;4.57;;;2.28;;
38332;SDS011;25748;46.670;14.272;2022-12-07T05:43:10;4.28;;;1.75;;
38332;SDS011;25748;46.670;14.272;2022-12-07T05:45:35;3.40;;;1.40;;
38332;SDS011;25748;46.670;14.272;2022-12-07T05:48:01;3.90;;;1.90;;
38332;SDS011;25748;46.670;14.272;2022-12-07T05:50:27;5.35;;;1.95;;
38332;SDS011;25748;46.670;14.272;2022-12-07T05:52:53;3.13;;;1.88;;
38332;SDS011;25748;46.670;14.272;2022-12-07T05:55:18;4.35;;;2.10;;
38332;SDS011;25748;46.670;14.272;2022-12-07T05:57:44;5.28;;;2.17;;
38332;SDS011;25748;46.670;14.272;2022-12-07T06:00:30;5.60;;;2.42;;
38332;SDS011;25748;46.670;14.272;2022-12-07T06:02:56;5.47;;;2.35;;
38332;SDS011;25748;46.670;14.272;2022-12-07T06:05:22;5.78;;;2.30;;
38332;SDS011;25748;46.670;14.272;2022-12-07T06:07:48;4.38;;;1.80;;
38332;SDS011;25748;46.670;14.272;2022-12-07T06:10:14;5.35;;;2.25;;
38332;SDS011;25748;46.670;14.272;2022-12-07T06:12:40;3.92;;;1.98;;
38332;SDS011;25748;46.670;14.272;2022-12-07T06:15:08;3.40;;;1.80;;
38332;SDS011;25748;46.670;14.272;2022-12-07T06:17:35;4.30;;;1.98;;
38332;SDS011;25748;46.670;14.272;2022-12-07T06:20:02;3.05;;;1.83;;
38332;SDS011;25748;46.670;14.272;2022-12-07T06:22:28;4.82;;;2.30;;
38332;SDS011;25748;46.670;14.272;2022-12-07T06:24:53;7.60;;;3.17;;
38332;SDS011;25748;46.670;14.272;2022-12-07T06:27:19;4.18;;;2.08;;
38332;SDS011;25748;46.670;14.272;2022-12-07T06:29:45;4.03;;;2.25;;
38332;SDS011;25748;46.670;14.272;2022-12-07T06:32:11;3.97;;;2.00;;
38332;SDS011;25748;46.670;14.272;2022-12-07T06:34:37;3.88;;;2.17;;
38332;SDS011;25748;46.670;14.272;2022-12-07T06:37:03;4.32;;;2.05;;
38332;SDS011;25748;46.670;14.272;2022-12-07T06:39:29;5.82;;;2.05;;
38332;SDS011;25748;46.670;14.272;2022-12-07T06:41:55;4.22;;;1.98;;
38332;SDS011;25748;46.670;14.272;2022-12-07T06:44:21;3.83;;;2.25;;
38332;SDS011;25748;46.670;14.272;2022-12-07T06:46:48;4.80;;;1.92;;
38332;SDS011;25748;46.670;14.272;2022-12-07T06:49:14;6.45;;;2.13;;
38332;SDS011;25748;46.670;14.272;2022-12-07T06:51:40;4.93;;;2.22;;
38332;SDS011;25748;46.670;14.272;2022-12-07T06:54:09;4.38;;;2.55;;
38332;SDS011;25748;46.670;14.272;2022-12-07T06:56:38;4.15;;;2.55;;
38332;SDS011;25748;46.670;14.272;2022-12-07T06:59:04;7.05;;;2.13;;
38332;SDS011;25748;46.670;14.272;2022-12-07T07:01:32;5.30;;;2.10;;
38332;SDS011;25748;46.670;14.272;2022-12-07T07:03:58;3.85;;;1.85;;
38332;SDS011;25748;46.670;14.272;2022-12-07T07:06:24;4.75;;;2.45;;
38332;SDS011;25748;46.670;14.272;2022-12-07T07:08:50;3.13;;;1.88;;
38332;SDS011;25748;46.670;14.272;2022-12-07T07:11:16;6.28;;;2.05;;
38332;SDS011;25748;46.670;14.272;2022-12-07T07:13:42;5.05;;;2.03;;
38332;SDS011;25748;46.670;14.272;2022-12-07T07:16:08;3.90;;;1.90;;
38332;SDS011;25748;46.670;14.272;2022-12-07T07:18:35;5.25;;;2.65;;
38332;SDS011;25748;46.670;14.272;2022-12-07T07:21:01;2.85;;;2.00;;
38332;SDS011;25748;46.670;14.272;2022-12-07T07:23:27;4.53;;;1.92;;
38332;SDS011;25748;46.670;14.272;2022-12-07T07:25:53;4.93;;;2.42;;
38332;SDS011;25748;46.670;14.272;2022-12-07T07:28:18;4.32;;;2.50;;
38332;SDS011;25748;46.670;14.272;2022-12-07T07:30:44;9.40;;;2.20;;
38332;SDS011;25748;46.670;14.272;2022-12-07T07:33:10;8.02;;;3.17;;
38332;SDS011;25748;46.670;14.272;2022-12-07T07:35:37;7.18;;;2.97;;
38332;SDS011;25748;46.670;14.272;2022-12-07T07:38:03;5.50;;;2.45;;
38332;SDS011;25748;46.670;14.272;2022-12-07T07:40:30;5.45;;;2.78;;
38332;SDS011;25748;46.670;14.272;2022-12-07T07:42:55;4.45;;;2.50;;
38332;SDS011;25748;46.670;14.272;2022-12-07T07:45:22;3.97;;;2.33;;
38332;SDS011;25748;46.670;14.272;2022-12-07T07:47:49;4.07;;;2.50;;
38332;SDS011;25748;46.670;14.272;2022-12-07T07:50:15;2.75;;;1.75;;
38332;SDS011;25748;46.670;14.272;2022-12-07T07:52:41;4.55;;;2.20;;
38332;SDS011;25748;46.670;14.272;2022-12-07T07:55:08;5.03;;;2.22;;
38332;SDS011;25748;46.670;14.272;2022-12-07T07:57:34;5.35;;;2.15;;
38332;SDS011;25748;46.670;14.272;2022-12-07T08:00:02;14.60;;;2.58;;
38332;SDS011;25748;46.670;14.272;2022-12-07T08:02:36;6.30;;;2.60;;
38332;SDS011;25748;46.670;14.272;2022-12-07T08:05:02;6.65;;;2.20;;
38332;SDS011;25748;46.670;14.272;2022-12-07T08:07:28;3.55;;;2.08;;
38332;SDS011;25748;46.670;14.272;2022-12-07T08:09:53;5.60;;;2.30;;
38332;SDS011;25748;46.670;14.272;2022-12-07T08:12:19;3.53;;;2.05;;
38332;SDS011;25748;46.670;14.272;2022-12-07T08:14:45;4.32;;;2.40;;
38332;SDS011;25748;46.670;14.272;2022-12-07T08:17:11;3.75;;;2.35;;
38332;SDS011;25748;46.670;14.272;2022-12-07T08:19:37;5.43;;;2.55;;
38332;SDS011;25748;46.670;14.272;2022-12-07T08:22:03;6.68;;;2.45;;
38332;SDS011;25748;46.670;14.272;2022-12-07T08:24:29;4.22;;;2.03;;
38332;SDS011;25748;46.670;14.272;2022-12-07T08:26:54;6.00;;;2.30;;
38332;SDS011;25748;46.670;14.272;2022-12-07T08:29:20;3.88;;;1.77;;
38332;SDS011;25748;46.670;14.272;2022-12-07T08:31:46;3.80;;;1.70;;
38332;SDS011;25748;46.670;14.272;2022-12-07T08:34:12;2.30;;;1.23;;
38332;SDS011;25748;46.670;14.272;2022-12-07T08:36:38;4.18;;;1.80;;
38332;SDS011;25748;46.670;14.272;2022-12-07T08:39:04;3.15;;;1.50;;
38332;SDS011;25748;46.670;14.272;2022-12-07T08:41:29;2.85;;;1.33;;
38332;SDS011;25748;46.670;14.272;2022-12-07T08:43:55;2.67;;;1.45;;
38332;SDS011;25748;46.670;14.272;2022-12-07T08:46:22;5.88;;;1.80;;
38332;SDS011;25748;46.670;14.272;2022-12-07T08:49:12;3.85;;;1.35;;
38332;SDS011;25748;46.670;14.272;2022-12-07T08:51:49;2.60;;;1.80;;
38332;SDS011;25748;46.670;14.272;2022-12-07T08:54:16;1.90;;;1.30;;
38332;SDS011;25748;46.670;14.272;2022-12-07T08:56:43;5.13;;;2.00;;
38332;SDS011;25748;46.670;14.272;2022-12-07T08:59:10;2.45;;;1.67;;
38332;SDS011;25748;46.670;14.272;2022-12-07T09:01:39;3.30;;;1.85;;
38332;SDS011;25748;46.670;14.272;2022-12-07T09:04:05;4.28;;;1.75;;
38332;SDS011;25748;46.670;14.272;2022-12-07T09:06:31;3.10;;;1.50;;
38332;SDS011;25748;46.670;14.272;2022-12-07T09:08:58;3.72;;;1.40;;
38332;SDS011;25748;46.670;14.272;2022-12-07T09:11:25;3.33;;;1.58;;
38332;SDS011;25748;46.670;14.272;2022-12-07T09:13:50;3.90;;;1.23;;
38332;SDS011;25748;46.670;14.272;2022-12-07T09:16:16;3.38;;;1.77;;
38332;SDS011;25748;46.670;14.272;2022-12-07T09:18:42;2.40;;;1.13;;
38332;SDS011;25748;46.670;14.272;2022-12-07T09:21:08;2.80;;;1.33;;
38332;SDS011;25748;46.670;14.272;2022-12-07T09:23:34;2.63;;;1.42;;
38332;SDS011;25748;46.670;14.272;2022-12-07T09:26:00;3.22;;;1.35;;
38332;SDS011;25748;46.670;14.272;2022-12-07T09:28:26;3.53;;;1.10;;
38332;SDS011;25748;46.670;14.272;2022-12-07T09:30:52;2.90;;;1.23;;
38332;SDS011;25748;46.670;14.272;2022-12-07T09:33:18;2.72;;;1.40;;
38332;SDS011;25748;46.670;14.272;2022-12-07T09:35:47;2.42;;;1.20;;
38332;SDS011;25748;46.670;14.272;2022-12-07T09:38:14;3.50;;;1.55;;
38332;SDS011;25748;46.670;14.272;2022-12-07T09:40:41;1.77;;;1.05;;
38332;SDS011;25748;46.670;14.272;2022-12-07T09:43:15;2.05;;;0.93;;
38332;SDS011;25748;46.670;14.272;2022-12-07T09:45:49;3.03;;;1.60;;
38332;SDS011;25748;46.670;14.272;2022-12-07T09:48:19;4.20;;;1.20;;
38332;SDS011;25748;46.670;14.272;2022-12-07T09:50:47;1.92;;;0.90;;
38332;SDS011;25748;46.670;14.272;2022-12-07T09:53:56;3.35;;;1.17;;
38332;SDS011;25748;46.670;14.272;2022-12-07T09:56:03;4.45;;;1.45;;
38332;SDS011;25748;46.670;14.272;2022-12-07T09:58:30;3.38;;;1.40;;
38332;SDS011;25748;46.670;14.272;2022-12-07T10:01:39;1.90;;;1.30;;
38332;SDS011;25748;46.670;14.272;2022-12-07T10:06:20;2.55;;;1.25;;
38332;SDS011;25748;46.670;14.272;2022-12-07T10:08:46;5.25;;;1.20;;
38332;SDS011;25748;46.670;14.272;2022-12-07T10:11:12;3.40;;;1.27;;
38332;SDS011;25748;46.670;14.272;2022-12-07T10:13:46;4.55;;;1.38;;
38332;SDS011;25748;46.670;14.272;2022-12-07T10:16:35;3.35;;;1.40;;
38332;SDS011;25748;46.670;14.272;2022-12-07T10:19:17;3.95;;;1.50;;
38332;SDS011;25748;46.670;14.272;2022-12-07T10:21:47;2.25;;;1.08;;
38332;SDS011;25748;46.670;14.272;2022-12-07T10:24:25;1.73;;;1.30;;
38332;SDS011;25748;46.670;14.272;2022-12-07T10:26:51;3.47;;;1.45;;
38332;SDS011;25748;46.670;14.272;2022-12-07T10:29:37;4.65;;;1.65;;
38332;SDS011;25748;46.670;14.272;2022-12-07T10:42:18;4.38;;;1.67;;
38332;SDS011;25748;46.670;14.272;2022-12-07T10:47:26;6.15;;;1.85;;
38332;SDS011;25748;46.670;14.272;2022-12-07T11:01:45;5.07;;;1.50;;
38332;SDS011;25748;46.670;14.272;2022-12-07T11:09:44;4.22;;;1.90;;
38332;SDS011;25748;46.670;14.272;2022-12-07T11:12:26;4.63;;;1.55;;
38332;SDS011;25748;46.670;14.272;2022-12-07T11:21:07;3.38;;;1.80;;
38332;SDS011;25748;46.670;14.272;2022-12-07T11:34:35;3.10;;;1.52;;
38332;SDS011;25748;46.670;14.272;2022-12-07T11:37:16;3.63;;;1.30;;
38332;SDS011;25748;46.670;14.272;2022-12-07T11:39:52;3.95;;;1.80;;
38332;SDS011;25748;46.670;14.272;2022-12-07T11:42:31;3.05;;;1.48;;
38332;SDS011;25748;46.670;14.272;2022-12-07T11:55:19;2.77;;;1.50;;
38332;SDS011;25748;46.670;14.272;2022-12-07T11:57:47;4.95;;;1.70;;
38332;SDS011;25748;46.670;14.272;2022-12-07T12:00:18;3.55;;;1.95;;
38332;SDS011;25748;46.670;14.272;2022-12-07T12:02:53;5.15;;;1.80;;
38332;SDS011;25748;46.670;14.272;2022-12-07T12:05:30;3.63;;;1.85;;
38332;SDS011;25748;46.670;14.272;2022-12-07T12:13:28;3.72;;;2.10;;
38332;SDS011;25748;46.670;14.272;2022-12-07T12:21:28;2.88;;;1.50;;
38332;SDS011;25748;46.670;14.272;2022-12-07T12:23:59;3.53;;;1.55;;
38332;SDS011;25748;46.670;14.272;2022-12-07T12:26:30;3.28;;;1.48;;
38332;SDS011;25748;46.670;14.272;2022-12-07T12:29:03;3.33;;;1.40;;
38332;SDS011;25748;46.670;14.272;2022-12-07T12:34:02;3.47;;;1.60;;
38332;SDS011;25748;46.670;14.272;2022-12-07T12:36:48;2.40;;;1.08;;
38332;SDS011;25748;46.670;14.272;2022-12-07T12:39:15;12.20;;;1.98;;
38332;SDS011;25748;46.670;14.272;2022-12-07T12:46:50;2.50;;;1.20;;
38332;SDS011;25748;46.670;14.272;2022-12-07T12:57:09;4.07;;;1.70;;
38332;SDS011;25748;46.670;14.272;2022-12-07T13:02:26;5.28;;;2.25;;
38332;SDS011;25748;46.670;14.272;2022-12-07T13:05:14;4.68;;;1.98;;
38332;SDS011;25748;46.670;14.272;2022-12-07T13:18:25;3.38;;;1.65;;
38332;SDS011;25748;46.670;14.272;2022-12-07T13:28:45;3.25;;;1.52;;
38332;SDS011;25748;46.670;14.272;2022-12-07T13:37:21;11.10;;;1.75;;
38332;SDS011;25748;46.670;14.272;2022-12-07T13:39:54;3.55;;;1.42;;
38332;SDS011;25748;46.670;14.272;2022-12-07T13:45:00;3.03;;;1.35;;
38332;SDS011;25748;46.670;14.272;2022-12-07T13:47:44;4.50;;;1.40;;
38332;SDS011;25748;46.670;14.272;2022-12-07T13:50:23;2.22;;;1.23;;
38332;SDS011;25748;46.670;14.272;2022-12-07T13:53:00;3.72;;;1.75;;
38332;SDS011;25748;46.670;14.272;2022-12-07T13:55:26;2.22;;;1.33;;
38332;SDS011;25748;46.670;14.272;2022-12-07T13:57:54;4.07;;;1.88;;
38332;SDS011;25748;46.670;14.272;2022-12-07T14:00:26;2.65;;;1.40;;
38332;SDS011;25748;46.670;14.272;2022-12-07T14:05:25;4.85;;;1.67;;
38332;SDS011;25748;46.670;14.272;2022-12-07T14:12:55;2.70;;;1.67;;
38332;SDS011;25748;46.670;14.272;2022-12-07T14:15:23;3.53;;;1.85;;
38332;SDS011;25748;46.670;14.272;2022-12-07T14:17:57;4.22;;;1.65;;
38332;SDS011;25748;46.670;14.272;2022-12-07T14:20:32;3.13;;;1.55;;
38332;SDS011;25748;46.670;14.272;2022-12-07T14:23:01;3.50;;;1.60;;
38332;SDS011;25748;46.670;14.272;2022-12-07T14:26:03;2.50;;;1.45;;
38332;SDS011;25748;46.670;14.272;2022-12-07T14:28:31;3.65;;;1.52;;
38332;SDS011;25748;46.670;14.272;2022-12-07T14:30:58;2.35;;;1.30;;
38332;SDS011;25748;46.670;14.272;2022-12-07T14:33:24;2.80;;;1.50;;
38332;SDS011;25748;46.670;14.272;2022-12-07T14:35:50;3.83;;;2.10;;
38332;SDS011;25748;46.670;14.272;2022-12-07T14:38:20;4.32;;;1.75;;
38332;SDS011;25748;46.670;14.272;2022-12-07T14:40:47;4.35;;;1.48;;
38332;SDS011;25748;46.670;14.272;2022-12-07T14:43:14;3.03;;;1.17;;
38332;SDS011;25748;46.670;14.272;2022-12-07T14:45:41;2.90;;;1.45;;
38332;SDS011;25748;46.670;14.272;2022-12-07T14:48:10;3.50;;;1.58;;
38332;SDS011;25748;46.670;14.272;2022-12-07T14:50:38;1.73;;;1.35;;
38332;SDS011;25748;46.670;14.272;2022-12-07T14:53:17;4.88;;;1.40;;
38332;SDS011;25748;46.670;14.272;2022-12-07T14:55:47;2.55;;;1.15;;
38332;SDS011;25748;46.670;14.272;2022-12-07T14:58:14;2.38;;;1.23;;
38332;SDS011;25748;46.670;14.272;2022-12-07T15:00:41;2.70;;;1.38;;
38332;SDS011;25748;46.670;14.272;2022-12-07T15:03:06;3.35;;;1.42;;
38332;SDS011;25748;46.670;14.272;2022-12-07T15:05:32;2.63;;;1.33;;
38332;SDS011;25748;46.670;14.272;2022-12-07T15:07:58;3.05;;;1.27;;
38332;SDS011;25748;46.670;14.272;2022-12-07T15:10:26;2.67;;;1.70;;
38332;SDS011;25748;46.670;14.272;2022-12-07T15:12:57;3.83;;;1.45;;
38332;SDS011;25748;46.670;14.272;2022-12-07T15:15:46;3.40;;;1.70;;
38332;SDS011;25748;46.670;14.272;2022-12-07T15:18:13;3.63;;;1.48;;
38332;SDS011;25748;46.670;14.272;2022-12-07T15:20:39;3.28;;;1.55;;
38332;SDS011;25748;46.670;14.272;2022-12-07T15:23:05;3.00;;;1.20;;
38332;SDS011;25748;46.670;14.272;2022-12-07T15:25:31;2.92;;;1.55;;
38332;SDS011;25748;46.670;14.272;2022-12-07T15:27:57;3.03;;;1.40;;
38332;SDS011;25748;46.670;14.272;2022-12-07T15:30:22;3.72;;;1.90;;
38332;SDS011;25748;46.670;14.272;2022-12-07T15:32:49;4.22;;;2.05;;
38332;SDS011;25748;46.670;14.272;2022-12-07T15:35:15;3.63;;;1.60;;
38332;SDS011;25748;46.670;14.272;2022-12-07T15:37:41;2.90;;;1.60;;
38332;SDS011;25748;46.670;14.272;2022-12-07T15:40:06;5.68;;;1.90;;
38332;SDS011;25748;46.670;14.272;2022-12-07T15:42:33;8.80;;;2.95;;
38332;SDS011;25748;46.670;14.272;2022-12-07T15:44:59;3.78;;;1.67;;
38332;SDS011;25748;46.670;14.272;2022-12-07T15:47:28;3.13;;;1.40;;
38332;SDS011;25748;46.670;14.272;2022-12-07T15:49:58;3.63;;;1.48;;
38332;SDS011;25748;46.670;14.272;2022-12-07T15:52:24;2.78;;;1.60;;
38332;SDS011;25748;46.670;14.272;2022-12-07T15:54:50;3.58;;;1.65;;
38332;SDS011;25748;46.670;14.272;2022-12-07T15:57:15;2.10;;;1.40;;
38332;SDS011;25748;46.670;14.272;2022-12-07T15:59:41;1.88;;;1.20;;
38332;SDS011;25748;46.670;14.272;2022-12-07T16:02:07;4.30;;;1.83;;
38332;SDS011;25748;46.670;14.272;2022-12-07T16:04:35;3.67;;;1.67;;
38332;SDS011;25748;46.670;14.272;2022-12-07T16:07:01;2.40;;;1.27;;
38332;SDS011;25748;46.670;14.272;2022-12-07T16:09:27;3.75;;;2.08;;
38332;SDS011;25748;46.670;14.272;2022-12-07T16:11:53;2.33;;;1.27;;
38332;SDS011;25748;46.670;14.272;2022-12-07T16:14:19;4.07;;;1.70;;
38332;SDS011;25748;46.670;14.272;2022-12-07T16:16:46;2.40;;;1.27;;
38332;SDS011;25748;46.670;14.272;2022-12-07T16:19:12;2.42;;;1.38;;
38332;SDS011;25748;46.670;14.272;2022-12-07T16:21:38;4.35;;;1.92;;
38332;SDS011;25748;46.670;14.272;2022-12-07T16:24:04;3.00;;;1.58;;
38332;SDS011;25748;46.670;14.272;2022-12-07T16:26:30;3.15;;;1.90;;
38332;SDS011;25748;46.670;14.272;2022-12-07T16:28:56;4.10;;;2.15;;
38332;SDS011;25748;46.670;14.272;2022-12-07T16:31:23;3.05;;;1.55;;
38332;SDS011;25748;46.670;14.272;2022-12-07T16:33:50;4.50;;;1.73;;
38332;SDS011;25748;46.670;14.272;2022-12-07T16:36:18;4.32;;;2.15;;
38332;SDS011;25748;46.670;14.272;2022-12-07T16:38:44;3.42;;;1.20;;
38332;SDS011;25748;46.670;14.272;2022-12-07T16:41:10;4.40;;;1.90;;
38332;SDS011;25748;46.670;14.272;2022-12-07T16:43:36;3.22;;;1.50;;
38332;SDS011;25748;46.670;14.272;2022-12-07T16:46:03;6.50;;;1.70;;
38332;SDS011;25748;46.670;14.272;2022-12-07T16:48:28;3.92;;;1.92;;
38332;SDS011;25748;46.670;14.272;2022-12-07T16:50:54;3.60;;;1.60;;
38332;SDS011;25748;46.670;14.272;2022-12-07T16:53:21;3.65;;;1.73;;
38332;SDS011;25748;46.670;14.272;2022-12-07T16:55:48;2.97;;;1.60;;
38332;SDS011;25748;46.670;14.272;2022-12-07T16:58:14;3.67;;;1.55;;
38332;SDS011;25748;46.670;14.272;2022-12-07T17:00:41;4.13;;;2.15;;
38332;SDS011;25748;46.670;14.272;2022-12-07T17:03:09;4.60;;;1.48;;
38332;SDS011;25748;46.670;14.272;2022-12-07T17:05:39;3.75;;;1.73;;
38332;SDS011;25748;46.670;14.272;2022-12-07T17:08:05;5.13;;;2.30;;
38332;SDS011;25748;46.670;14.272;2022-12-07T17:10:32;4.32;;;1.65;;
38332;SDS011;25748;46.670;14.272;2022-12-07T17:13:03;5.55;;;2.15;;
38332;SDS011;25748;46.670;14.272;2022-12-07T17:15:56;3.50;;;1.60;;
38332;SDS011;25748;46.670;14.272;2022-12-07T17:18:23;6.53;;;2.22;;
38332;SDS011;25748;46.670;14.272;2022-12-07T17:20:51;3.53;;;1.65;;
38332;SDS011;25748;46.670;14.272;2022-12-07T17:23:16;5.53;;;2.13;;
38332;SDS011;25748;46.670;14.272;2022-12-07T17:25:42;4.93;;;2.47;;
38332;SDS011;25748;46.670;14.272;2022-12-07T17:28:08;3.05;;;1.65;;
38332;SDS011;25748;46.670;14.272;2022-12-07T17:30:33;2.90;;;1.38;;
38332;SDS011;25748;46.670;14.272;2022-12-07T17:32:59;5.07;;;2.00;;